x

Boston 16 Nm East Of Boston, Ma (44013) Wave Buoy

8:50pm - Mon 20th Feb 2017 All times are EST. -5 hours from GMT.

  • Sig Wave height 3.6ft
  • Swell Direction
  • Peak Period 6s
  • Average Period 5s
  • Wind
    13mph, 16mph gusts
  • Sea Temp 42°f
  • Air Temp 40°f
  • Sea Pressure 1025.5mb
  • Boston 16 Nm East Of Boston, Ma
  • Boston 16 Nm East Of Boston, Ma

More Historic Weather Station data

Upgrade to MSW Pro to gain access to the past 30 days of data for over 8000 Wavebouys and Weather Stations around the globe.

Join Pro

Comparision Forecast

View Surf forecast
   
Mon 02/20 8:50pm 3.5ft 6s 5s 13 16 mph 1025.5mb 42f 40f
7:50pm 3ft 6s 5s 13 16 mph 1025.2mb 42f 41f
6:50pm 2.5ft 5s 4s 7 11 mph 1024.7mb 42f 40f
5:50pm 2.5ft 6s 4s 9 11 mph 1023.6mb 42f 40f
4:50pm 3ft 6s 4s 13 16 mph 1022mb 42f 40f
3:50pm 3ft 5s 4s 13 16 mph 1021.2mb 42f 39f
2:50pm 3.5ft 6s 4s 13 16 mph 1021mb 42f 38f
1:50pm 3.5ft 6s 5s 13 18 mph 1020.1mb 42f 38f
12:50pm 4ft 6s 5s 16 18 mph 1020.5mb 42f 38f
11:50am 4ft 6s 4s 16 20 mph 1020.3mb 42f 38f
10:50am 3.5ft 6s 4s 16 20 mph 1020.2mb 42f 38f
9:50am 3ft 5s 4s 16 18 mph 1020mb 42f 39f
8:50am 2ft 3s 3s 18 20 mph 1019.4mb 42f 39f
7:50am 1.6ft 3s 3s 18 20 mph 1018.6mb 42f 40f
6:50am 2ft 3s 3s 16 18 mph 1016.9mb 42f 41f
5:50am 2ft 3s 3s 16 18 mph 1015.5mb 42f 42f
4:50am 2ft 3s 3s 18 22 mph 1014.3mb 42f 43f
3:50am 2ft 3s 3s 13 18 mph 1013.4mb 42f 43f
2:50am 1.6ft 3s 3s 20 22 mph 1012.5mb 42f 45f
1:50am 1.3ft 10s 3s 16 20 mph 1012.1mb 42f 46f
12:50am 1ft 9s 5s 13 16 mph 1011.6mb 42f 46f
Sun 02/19 11:50pm 1ft 9s 6s 11
mph
1011.4mb 42f 46f
10:50pm 1ft 11s 7s 11 13 mph 1010.9mb 42f 47f
9:50pm 0.7ft  -  7s 11
mph
1010.3mb 42f 47f
8:50pm 0.7ft  -  7s 11
mph
1009.4mb 42f 48f
7:50pm 0.7ft  -  5s 7 9 mph 1008.8mb 42f 48f
6:50pm 0.7ft  -  5s 9 11 mph 1007.9mb 42f 50f
5:50pm 0.7ft  -  4s 9
mph
1006.9mb 42f 51f
4:50pm 1ft 11s 4s 9 11 mph 1005.8mb 42f 50f
3:50pm 1ft 10s 3s 9 11 mph 1004.8mb 42f 50f
2:50pm 0.7ft  -  4s 11 13 mph 1004.1mb 42f 51f
1:50pm 0.7ft  -  4s 11
mph
1003.6mb 42f 48f
12:50pm 1ft 11s 4s 9 13 mph 1003.7mb 42f 49f
11:50am 1ft 11s 3s 13
mph
1004.3mb 42f 49f
10:50am 0.7ft  -  4s 11
mph
1004.8mb 42f 47f
9:50am 0.7ft  -  3s 9 11 mph 1004.9mb 42f 45f
8:50am 1ft 10s 4s 11 13 mph 1004.5mb 42f 46f
7:50am 1ft 11s 3s 11 13 mph 1004.1mb 42f 45f
6:50am 1ft 11s 3s 13 16 mph 1003.2mb 42f 45f
5:50am 1ft 11s 3s 11 13 mph 1002.7mb 42f 46f
4:50am 1ft 11s 3s 13 16 mph 1001.8mb 42f 46f
3:50am 1.3ft 3s 3s 13 16 mph 1000.9mb 42f 45f
2:50am 1.6ft 3s 3s 9 11 mph 1000.1mb 42f 46f
1:50am 2ft 3s 3s 13 16 mph 999.2mb 42f 47f
12:50am 2ft 3s 3s 18 20 mph 998.8mb 42f 48f
Sat 02/18 11:50pm 2.5ft 3s 3s 20 22 mph 999mb 42f 49f
10:50pm 2.5ft 4s 3s 20 22 mph 998.8mb 42f 49f
9:50pm 2.5ft 3s 3s 20 27 mph 998.9mb 42f 49f
8:50pm 2.5ft 3s 3s 22 27 mph 999.1mb 42f 48f
7:50pm 2ft 4s 3s 20 22 mph 999.3mb 42f 47f
6:50pm 2ft 11s 4s 16 18 mph 999.6mb 42f 45f
5:50pm 2ft 5s 3s 13 16 mph 999.9mb 42f 45f
4:50pm 2ft 4s 3s 13 16 mph 1000.3mb 42f 46f
3:50pm 2.5ft 4s 3s 18 20 mph 1000.1mb 42f 46f
2:50pm 2.5ft 4s 3s 16 20 mph 1000.9mb 42f 47f
1:50pm 2ft 3s 3s 18 22 mph 1002.5mb 42f 46f
12:50pm 1.6ft 3s 3s 16 20 mph 1003.9mb 42f 44f
11:50am 1.3ft 11s 3s 11 13 mph 1005.5mb 42f 43f
10:50am 1ft 11s 3s 13 16 mph 1007mb 42f 39f
9:50am 1ft 11s 3s 7 9 mph 1008.4mb 42f 37f
8:50am 1.3ft 11s 3s 13 16 mph 1009.3mb 42f 34f
7:50am 1.3ft 11s 3s 13 16 mph 1009.3mb 42f 33f
6:50am 1.3ft 11s 3s 16 18 mph 1009.1mb 42f 33f
5:50am 1.3ft 3s 3s 9 11 mph 1009mb 42f 34f
4:50am 2ft 3s 3s 16 20 mph 1009.2mb 42f 34f
3:50am 2.5ft 4s 4s 18 22 mph 1009.2mb 42f 34f
2:50am 2.5ft 4s 4s 20 25 mph 1009.2mb 42f 35f
1:50am 2.5ft 4s 3s 20 22 mph 1009mb 42f 35f
12:50am 2.5ft 3s 3s 20 25 mph 1008.9mb 42f 36f
Fri 02/17 11:50pm 2.5ft 3s 3s 20 25 mph 1008.4mb 42f 36f
10:50pm 2ft 3s 3s 22 27 mph 1007.6mb 42f 37f
9:50pm 2.5ft 3s 3s 20 27 mph 1007.7mb 42f 37f
8:50pm 2.5ft 4s 3s 25 29 mph 1007.2mb 42f 37f
7:50pm 2.5ft 4s 3s 25 29 mph 1006.6mb 42f 38f
6:50pm 2.5ft 4s 4s 22 27 mph 1005.8mb 42f 39f
5:50pm 2.5ft 4s 3s 25 31 mph 1005.1mb 42f 40f
4:50pm 2.5ft 4s 4s 22 29 mph 1004.1mb 42f 40f
3:50pm 2.5ft 4s 4s 22 25 mph 1003.5mb 42f 40f
2:50pm 2.5ft 4s 3s 20 25 mph 1003.4mb 42f 39f
1:50pm 2.5ft 4s 4s 20 25 mph 1003.3mb 42f 37f
12:50pm 3ft 4s 4s 22 25 mph 1003.3mb 42f 35f
11:50am 3ft 4s 4s 22 29 mph 1003.8mb 42f 34f
10:50am 3.5ft 4s 4s 27 31 mph 1003.6mb 42f 32f
9:50am 3.5ft 4s 4s 25 27 mph 1003.8mb 42f 30f
8:50am 3.5ft 4s 4s 27 34 mph 1003.8mb 42f 28f
7:50am 3.5ft 4s 4s 29 36 mph 1003.5mb 42f 28f
6:50am 3.5ft 4s 4s 29 36 mph 1002.8mb 42f 28f
5:50am 3.5ft 4s 4s 27 31 mph 1002.3mb 42f 28f
4:50am 4ft 4s 4s 25 36 mph 1001.8mb 42f 29f
3:50am 4ft 4s 4s 29 36 mph 1001.3mb 42f 29f